createdAt,value
2023-01-04T00:02:03.284Z,102375.22
2023-01-04T00:05:09.258Z,102377.94
2023-01-04T00:08:14.511Z,102379.03
2023-01-04T00:11:22.558Z,102383.38
2023-01-04T00:14:27.640Z,102388.84
2023-01-04T00:17:33.145Z,102390.66
2023-01-04T00:20:38.213Z,102382.44
2023-01-04T00:23:44.455Z,102385.16
2023-01-04T00:26:51.154Z,102390.41
2023-01-04T00:29:56.630Z,102376.19
2023-01-04T00:33:01.792Z,102385.72
2023-01-04T00:36:08.747Z,102378.03
2023-01-04T00:39:16.477Z,102375.84
2023-01-04T00:42:23.259Z,102377.06
2023-01-04T00:45:28.352Z,102380.66
2023-01-04T00:48:37.806Z,102379.63
2023-01-04T00:51:45.308Z,102387.91
2023-01-04T00:54:50.494Z,102376.63
2023-01-04T00:57:57.597Z,102379.44
2023-01-04T01:01:07.050Z,102385.56
2023-01-04T01:04:15.170Z,102380.13
2023-01-04T01:07:20.214Z,102384.91
2023-01-04T01:10:25.265Z,102378.41
2023-01-04T01:13:32.069Z,102396.78
2023-01-04T01:16:54.499Z,102390.00
2023-01-04T01:20:01.692Z,102383.84
2023-01-04T01:23:07.332Z,102389.75
2023-01-04T01:26:14.944Z,102378.63
2023-01-04T01:29:21.417Z,102388.66
2023-01-04T01:32:26.619Z,102386.75
2023-01-04T01:35:31.720Z,102398.44
2023-01-04T01:38:37.757Z,102382.03
2023-01-04T01:41:43.126Z,102391.16
2023-01-04T01:45:01.362Z,102387.59
2023-01-04T01:48:11.747Z,102391.13
2023-01-04T01:51:18.058Z,102369.25
2023-01-04T01:54:27.038Z,102373.84
2023-01-04T01:57:34.991Z,102366.56
2023-01-04T02:00:41.584Z,102377.59
2023-01-04T02:03:47.028Z,102369.91
2023-01-04T02:06:54.644Z,102354.97
2023-01-04T02:10:00.354Z,102366.69
2023-01-04T02:13:10.003Z,102371.69
2023-01-04T02:16:21.942Z,102380.19
2023-01-04T02:20:00.593Z,102380.63
2023-01-04T02:23:39.597Z,102375.69
2023-01-04T02:27:08.989Z,102383.91
2023-01-04T02:30:54.548Z,102376.31
2023-01-04T02:34:05.231Z,102376.25
2023-01-04T02:37:18.775Z,102359.66
2023-01-04T02:40:28.963Z,102364.31
2023-01-04T02:43:55.459Z,102357.53
2023-01-04T02:47:06.285Z,102365.88
2023-01-04T02:50:33.568Z,102365.22
2023-01-04T02:53:40.477Z,102367.69
2023-01-04T02:57:04.918Z,102372.28
2023-01-04T03:00:23.304Z,102353.59
2023-01-04T03:03:51.880Z,102337.50
2023-01-04T03:07:01.353Z,102332.66
2023-01-04T03:10:10.632Z,102338.25
2023-01-04T03:13:20.129Z,102329.69
2023-01-04T03:16:26.881Z,102324.50
2023-01-04T03:19:51.151Z,102319.19
2023-01-04T03:23:17.031Z,102327.13
2023-01-04T03:26:42.420Z,102315.06
2023-01-04T03:30:09.649Z,102304.88
2023-01-04T03:33:32.995Z,102297.84
2023-01-04T03:36:54.553Z,102303.16
2023-01-04T03:40:28.514Z,102295.66
2023-01-04T03:43:56.437Z,102291.91
2023-01-04T03:47:24.330Z,102280.28
2023-01-04T03:50:33.153Z,102288.66
2023-01-04T03:53:47.127Z,102275.66
2023-01-04T03:56:52.619Z,102268.13
2023-01-04T04:00:02.299Z,102271.06
2023-01-04T04:03:10.201Z,102270.59
2023-01-04T04:06:32.801Z,102266.91
2023-01-04T04:09:39.329Z,102264.09
2023-01-04T04:12:44.552Z,102262.84
2023-01-04T04:15:49.810Z,102242.66
2023-01-04T04:18:55.363Z,102241.50
2023-01-04T04:22:00.506Z,102239.81
2023-01-04T04:25:07.890Z,102256.44
2023-01-04T04:28:14.924Z,102248.38
2023-01-04T04:31:20.257Z,102257.75
2023-01-04T04:34:25.376Z,102259.63
2023-01-04T04:37:32.232Z,102251.34
2023-01-04T04:40:58.005Z,102259.97
2023-01-04T04:44:03.136Z,102244.22
2023-01-04T04:47:08.272Z,102239.47
2023-01-04T04:50:16.217Z,102248.56
2023-01-04T04:53:21.497Z,102245.22
2023-01-04T04:56:28.528Z,102251.19
2023-01-04T04:59:33.811Z,102255.34
2023-01-04T05:02:39.120Z,102260.31
2023-01-04T05:05:44.618Z,102256.19
2023-01-04T05:08:49.891Z,102251.19
2023-01-04T05:12:14.246Z,102246.84
2023-01-04T05:15:19.446Z,102250.09
2023-01-04T05:18:25.051Z,102252.59
2023-01-04T05:21:30.156Z,102242.19
2023-01-04T05:24:35.315Z,102247.09
2023-01-04T05:27:42.717Z,102254.53
2023-01-04T05:30:53.702Z,102240.22
2023-01-04T05:33:59.332Z,102231.16
2023-01-04T05:37:04.414Z,102234.44
2023-01-04T05:40:11.652Z,102217.81
2023-01-04T05:43:19.261Z,102213.19
2023-01-04T05:46:24.663Z,102225.06
2023-01-04T05:49:29.759Z,102208.06
2023-01-04T05:52:35.105Z,102195.50
2023-01-04T05:55:40.245Z,102212.66
2023-01-04T05:58:46.836Z,102195.53
2023-01-04T06:01:52.124Z,102206.97
2023-01-04T06:04:59.350Z,102209.16
2023-01-04T06:08:04.794Z,102196.97
2023-01-04T06:11:10.008Z,102192.00
2023-01-04T06:14:16.595Z,102199.13
2023-01-04T06:17:22.078Z,102210.34
2023-01-04T06:20:27.189Z,102197.41
2023-01-04T06:23:32.351Z,102198.59
2023-01-04T06:26:37.520Z,102219.06
2023-01-04T06:29:44.010Z,102212.09
2023-01-04T06:32:49.113Z,102203.59
2023-01-04T06:35:57.475Z,102201.56
2023-01-04T06:39:02.899Z,102190.97
2023-01-04T06:42:28.732Z,102186.63
2023-01-04T06:45:35.300Z,102192.25
2023-01-04T06:48:40.499Z,102192.00
2023-01-04T06:51:45.746Z,102180.28
2023-01-04T06:54:51.303Z,102176.94
2023-01-04T06:57:59.763Z,102186.22
2023-01-04T07:01:07.210Z,102175.59
2023-01-04T07:04:12.684Z,102161.47
2023-01-04T07:07:17.809Z,102158.44
2023-01-04T07:10:22.984Z,102164.00
2023-01-04T07:13:28.414Z,102165.47
2023-01-04T07:16:34.934Z,102160.94
2023-01-04T07:19:40.071Z,102163.53
2023-01-04T07:22:45.260Z,102134.97
2023-01-04T07:25:50.718Z,102141.66
2023-01-04T07:29:13.608Z,102137.75
2023-01-04T07:32:20.091Z,102157.06
2023-01-04T07:35:25.491Z,102153.72
2023-01-04T07:38:30.687Z,102141.22
2023-01-04T07:41:36.142Z,102147.31
2023-01-04T07:44:41.397Z,102151.91
2023-01-04T07:47:47.978Z,102141.94
2023-01-04T07:50:53.463Z,102110.97
2023-01-04T07:53:58.759Z,102101.47
2023-01-04T07:57:04.548Z,102099.56
2023-01-04T08:00:12.719Z,102100.53
2023-01-04T08:03:19.413Z,102087.66
2023-01-04T08:06:24.564Z,102077.53
2023-01-04T08:09:29.752Z,102074.91
2023-01-04T08:12:34.825Z,102083.84
2023-01-04T08:15:40.215Z,102078.22
2023-01-04T08:18:46.785Z,102081.16
2023-01-04T08:21:52.342Z,102076.56
2023-01-04T08:24:57.501Z,102077.47
2023-01-04T08:28:02.502Z,102079.56
2023-01-04T08:31:10.110Z,102078.91
2023-01-04T08:34:16.587Z,102069.63
2023-01-04T08:37:21.894Z,102060.53
2023-01-04T08:41:00.005Z,102056.97
2023-01-04T08:43:52.253Z,102049.19
2023-01-04T08:46:59.273Z,102031.94
2023-01-04T08:50:10.771Z,102040.28
2023-01-04T08:53:17.427Z,102037.66
2023-01-04T08:56:22.534Z,102046.75
2023-01-04T08:59:27.755Z,102051.06
2023-01-04T09:02:33.155Z,102042.63
2023-01-04T09:05:40.251Z,102045.50
2023-01-04T09:08:46.225Z,102041.88
2023-01-04T09:11:51.350Z,102023.28
2023-01-04T09:14:57.227Z,102023.63
2023-01-04T09:18:31.133Z,102032.97
2023-01-04T09:21:29.876Z,102012.50
2023-01-04T09:24:35.392Z,102000.50
2023-01-04T09:27:41.016Z,101990.03
2023-01-04T09:30:46.508Z,101986.00
2023-01-04T09:37:18.239Z,101981.72
2023-01-04T09:40:26.471Z,101957.97
2023-01-04T09:43:38.413Z,101955.69
2023-01-04T09:46:47.150Z,101956.38
2023-01-04T09:49:54.682Z,101953.38
2023-01-04T09:53:06.421Z,101944.00
2023-01-04T09:56:19.773Z,101925.19
2023-01-04T09:59:30.541Z,101931.31
2023-01-04T10:02:43.272Z,101930.44
2023-01-04T10:05:48.748Z,101912.22
2023-01-04T10:08:55.587Z,101903.75
2023-01-04T10:12:11.343Z,101896.38
2023-01-04T10:15:28.554Z,101879.78
2023-01-04T10:22:11.415Z,101875.63
2023-01-04T10:25:34.321Z,101851.13
2023-01-04T10:29:12.895Z,101847.69
2023-01-04T10:32:24.155Z,101836.94
2023-01-04T10:35:30.164Z,101824.78
2023-01-04T10:38:39.554Z,101814.66
2023-01-04T10:41:51.947Z,101813.53
2023-01-04T10:45:09.542Z,101818.28
2023-01-04T10:48:23.432Z,101805.56
2023-01-04T10:51:32.900Z,101805.66
2023-01-04T10:54:42.745Z,101797.81
2023-01-04T10:57:54.517Z,101795.59
2023-01-04T11:01:05.456Z,101801.81
2023-01-04T11:04:15.076Z,101773.97
2023-01-04T11:07:23.758Z,101777.28
2023-01-04T11:10:31.967Z,101759.84
2023-01-04T11:13:38.899Z,101755.00
2023-01-04T11:16:48.418Z,101739.72
2023-01-04T11:19:54.361Z,101732.25
2023-01-04T11:23:02.483Z,101720.53
2023-01-04T11:26:10.338Z,101719.16
2023-01-04T11:29:27.027Z,101704.16
2023-01-04T11:32:38.501Z,101700.13
2023-01-04T11:35:46.209Z,101689.91
2023-01-04T11:38:57.381Z,101676.66
2023-01-04T11:42:04.605Z,101667.19
2023-01-04T11:45:20.128Z,101668.19
2023-01-04T11:48:38.762Z,101648.41
2023-01-04T11:51:43.911Z,101640.19
2023-01-04T11:54:49.036Z,101632.97
2023-01-04T11:58:08.316Z,101622.06
2023-01-04T12:01:26.036Z,101619.81
2023-01-04T12:04:35.634Z,101603.09
2023-01-04T12:07:41.707Z,101600.97
2023-01-04T12:10:46.782Z,101594.78
2023-01-04T12:13:52.524Z,101588.94
2023-01-04T12:17:03.345Z,101590.50
2023-01-04T12:20:19.056Z,101575.59
2023-01-04T12:23:25.380Z,101567.44
2023-01-04T12:26:30.599Z,101560.75
2023-01-04T12:29:50.457Z,101541.44
2023-01-04T12:32:57.044Z,101526.41
2023-01-04T12:36:04.047Z,101517.06
2023-01-04T12:39:29.973Z,101513.94
2023-01-04T12:42:35.044Z,101519.09
2023-01-04T12:45:40.304Z,101518.41
2023-01-04T12:49:04.537Z,101502.69
2023-01-04T12:53:10.858Z,101486.81
2023-01-04T12:56:06.919Z,101489.28
2023-01-04T12:59:25.083Z,101483.47
2023-01-04T13:02:31.207Z,101476.00
2023-01-04T13:05:55.828Z,101476.91
2023-01-04T13:09:03.251Z,101463.72
2023-01-04T13:12:17.521Z,101452.84
2023-01-04T13:15:26.130Z,101456.31
2023-01-04T13:18:43.038Z,101440.34
2023-01-04T13:21:50.455Z,101421.31
2023-01-04T13:24:57.773Z,101433.88
2023-01-04T13:28:04.281Z,101425.53
2023-01-04T13:31:10.493Z,101416.38
2023-01-04T13:34:23.332Z,101398.81
2023-01-04T13:37:31.436Z,101406.28
2023-01-04T13:40:37.586Z,101408.09
2023-01-04T13:43:54.535Z,101388.88
2023-01-04T13:47:00.922Z,101380.31
2023-01-04T13:50:07.761Z,101375.28
2023-01-04T13:53:22.360Z,101363.63
2023-01-04T13:56:29.346Z,101351.16
2023-01-04T13:59:34.510Z,101336.00
2023-01-04T14:02:39.905Z,101336.13
2023-01-04T14:05:49.722Z,101319.41
2023-01-04T14:09:06.679Z,101322.81
2023-01-04T14:12:17.700Z,101310.31
2023-01-04T14:15:24.376Z,101303.66
2023-01-04T14:18:31.529Z,101283.63
2023-01-04T14:21:38.675Z,101277.69
2023-01-04T14:28:38.901Z,101271.97
2023-01-04T14:31:47.194Z,101261.75
2023-01-04T14:38:04.468Z,101246.91
2023-01-04T14:41:19.068Z,101241.97
2023-01-04T14:44:27.681Z,101235.19
2023-01-04T14:47:32.854Z,101220.91
2023-01-04T14:50:37.963Z,101212.69
2023-01-04T14:53:43.304Z,101213.47
2023-01-04T14:56:49.856Z,101194.22
2023-01-04T14:59:55.207Z,101194.25
2023-01-04T15:03:00.461Z,101189.25
2023-01-04T15:06:06.182Z,101186.81
2023-01-04T15:09:12.095Z,101179.31
2023-01-04T15:12:18.687Z,101169.34
2023-01-04T15:15:24.108Z,101150.06
2023-01-04T15:18:29.681Z,101147.53
2023-01-04T15:21:40.671Z,101136.69
2023-01-04T15:24:46.696Z,101135.13
2023-01-04T15:27:53.505Z,101135.94
2023-01-04T15:30:59.429Z,101120.09
2023-01-04T15:34:04.851Z,101126.00
2023-01-04T15:37:10.222Z,101110.09
2023-01-04T15:40:17.480Z,101109.31
2023-01-04T15:43:24.820Z,101100.94
2023-01-04T15:46:30.152Z,101097.63
2023-01-04T15:49:35.264Z,101085.91
2023-01-04T15:52:40.362Z,101080.91
2023-01-04T15:55:45.484Z,101074.25
2023-01-04T15:58:56.426Z,101073.38
2023-01-04T16:02:01.688Z,101060.81
2023-01-04T16:05:07.628Z,101055.72
2023-01-04T16:08:15.375Z,101050.75
2023-01-04T16:11:21.944Z,101038.19
2023-01-04T16:14:28.472Z,101045.78
2023-01-04T16:17:33.846Z,101030.63
2023-01-04T16:20:42.603Z,101028.94
2023-01-04T16:23:56.982Z,101019.75
2023-01-04T16:27:05.496Z,101026.47
2023-01-04T16:30:15.864Z,101018.94
2023-01-04T16:33:21.285Z,101003.88
2023-01-04T16:36:27.086Z,101000.56
2023-01-04T16:40:05.304Z,100998.09
2023-01-04T16:42:57.498Z,100987.19
2023-01-04T16:46:23.769Z,100981.31
2023-01-04T16:49:29.169Z,100981.28
2023-01-04T16:52:34.350Z,100983.84
2023-01-04T16:55:39.863Z,100967.94
2023-01-04T16:58:45.289Z,100967.13
2023-01-04T17:01:57.694Z,100953.75
2023-01-04T17:05:04.521Z,100958.72
2023-01-04T17:08:09.633Z,100943.59
2023-01-04T17:12:04.848Z,100937.81
2023-01-04T17:14:41.621Z,100929.47
2023-01-04T17:17:48.105Z,100925.28
2023-01-04T17:21:11.030Z,100915.22
2023-01-04T17:24:21.743Z,100908.59
2023-01-04T17:27:27.231Z,100899.31
2023-01-04T17:30:32.470Z,100898.50
2023-01-04T17:33:39.126Z,100896.00
2023-01-04T17:36:44.401Z,100896.88
2023-01-04T17:39:50.926Z,100896.84
2023-01-04T17:42:56.269Z,100884.28
2023-01-04T17:46:03.650Z,100882.69
2023-01-04T17:49:31.854Z,100881.81
2023-01-04T17:52:37.646Z,100876.81
2023-01-04T17:55:42.714Z,100879.34
2023-01-04T17:58:48.505Z,100870.16
2023-01-04T18:01:54.058Z,100865.91
2023-01-04T18:05:01.296Z,100864.25
2023-01-04T18:08:08.666Z,100856.72
2023-01-04T18:11:14.595Z,100855.88
2023-01-04T18:14:19.741Z,100848.31
2023-01-04T18:17:25.458Z,100860.03
2023-01-04T18:20:32.297Z,100847.50
2023-01-04T18:23:41.784Z,100849.19
2023-01-04T18:30:15.418Z,100834.13
2023-01-04T18:33:20.651Z,100829.09
2023-01-04T18:36:32.008Z,100831.63
2023-01-04T18:39:37.921Z,100814.03
2023-01-04T18:42:46.844Z,100814.91
2023-01-04T18:45:52.375Z,100816.53
2023-01-04T18:48:58.897Z,100808.16
2023-01-04T18:52:05.732Z,100806.50
2023-01-04T18:55:12.442Z,100797.25
2023-01-04T18:58:17.577Z,100787.19
2023-01-04T19:01:27.636Z,100792.25
2023-01-04T19:04:34.550Z,100777.94
2023-01-04T19:07:41.401Z,100769.63
2023-01-04T19:10:46.539Z,100773.81
2023-01-04T19:13:53.806Z,100761.22
2023-01-04T19:16:59.024Z,100757.84
2023-01-04T19:20:04.576Z,100756.19
2023-01-04T19:23:11.321Z,100756.19
2023-01-04T19:26:16.367Z,100756.19
2023-01-04T19:29:21.444Z,100750.34
2023-01-04T19:32:33.025Z,100751.16
2023-01-04T19:35:42.422Z,100751.09
2023-01-04T19:38:49.299Z,100753.56
2023-01-04T19:41:54.407Z,100742.72
2023-01-04T19:44:59.751Z,100751.09
2023-01-04T19:48:05.160Z,100748.63
2023-01-04T19:51:11.660Z,100742.75
2023-01-04T19:54:24.784Z,100752.81
2023-01-04T19:57:30.970Z,100751.13
2023-01-04T20:00:36.453Z,100747.78
2023-01-04T20:03:42.226Z,100753.63
2023-01-04T20:06:47.624Z,100749.41
2023-01-04T20:09:54.461Z,100754.47
2023-01-04T20:12:59.548Z,100751.97
2023-01-04T20:16:06.401Z,100739.41
2023-01-04T20:19:11.637Z,100744.41
2023-01-04T20:22:16.787Z,100742.75
2023-01-04T20:25:23.490Z,100741.91
2023-01-04T20:28:28.556Z,100746.06
2023-01-04T20:31:34.676Z,100736.03
2023-01-04T20:34:39.956Z,100736.03
2023-01-04T20:37:45.173Z,100726.78
2023-01-04T20:40:51.885Z,100720.81
2023-01-04T20:43:57.197Z,100732.53
2023-01-04T20:47:02.369Z,100730.81
2023-01-04T20:50:09.646Z,100724.94
2023-01-04T20:53:14.762Z,100717.34
2023-01-04T20:56:22.595Z,100725.75
2023-01-04T20:59:28.058Z,100714.00
2023-01-04T21:02:38.104Z,100719.84
2023-01-04T21:05:44.797Z,100718.16
2023-01-04T21:08:50.460Z,100724.00
2023-01-04T21:12:00.666Z,100697.19
2023-01-04T21:15:09.133Z,100710.63
2023-01-04T21:18:14.272Z,100711.47
2023-01-04T21:21:20.484Z,100708.13
2023-01-04T21:24:25.960Z,100698.06
2023-01-04T21:27:32.536Z,100700.59
2023-01-04T21:30:39.803Z,100702.25
2023-01-04T21:33:46.151Z,100706.50
2023-01-04T21:36:51.827Z,100701.47
2023-01-04T21:39:57.064Z,100686.41
2023-01-04T21:43:03.657Z,100702.31
2023-01-04T21:46:10.371Z,100708.16
2023-01-04T21:49:15.594Z,100700.66
2023-01-04T21:52:22.376Z,100690.59
2023-01-04T21:55:33.880Z,100699.81
2023-01-04T21:58:41.012Z,100699.81
2023-01-04T22:01:46.313Z,100695.59
2023-01-04T22:04:51.468Z,100701.47
2023-01-04T22:07:56.975Z,100698.97
2023-01-04T22:11:02.409Z,100680.53
2023-01-04T22:14:09.020Z,100684.75
2023-01-04T22:17:14.111Z,100685.56
2023-01-04T22:20:19.570Z,100693.13
2023-01-04T22:23:24.682Z,100690.63
2023-01-04T22:26:30.519Z,100683.09
2023-01-04T22:29:37.174Z,100688.13
2023-01-04T22:32:42.523Z,100683.09
2023-01-04T22:35:47.809Z,100676.38
2023-01-04T22:38:53.589Z,100681.41
2023-01-04T22:41:58.771Z,100680.56
2023-01-04T22:45:12.840Z,100671.34
2023-01-04T22:48:18.502Z,100678.88
2023-01-04T22:51:24.702Z,100671.34
2023-01-04T22:54:30.452Z,100682.28
2023-01-04T22:57:35.497Z,100678.94
2023-01-04T23:00:42.066Z,100662.16
2023-01-04T23:03:47.359Z,100667.19
2023-01-04T23:06:52.569Z,100676.41
2023-01-04T23:09:57.705Z,100674.75
2023-01-04T23:13:02.906Z,100688.13
2023-01-04T23:16:11.535Z,100678.88
2023-01-04T23:19:16.956Z,100669.69
2023-01-04T23:22:22.736Z,100672.22
2023-01-04T23:25:27.940Z,100673.06
2023-01-04T23:28:33.123Z,100677.22
2023-01-04T23:31:39.928Z,100688.94
2023-01-04T23:34:45.282Z,100677.19
2023-01-04T23:37:50.376Z,100680.50
2023-01-04T23:40:55.818Z,100677.13
2023-01-04T23:44:01.029Z,100670.41
2023-01-04T23:47:09.931Z,100672.91
2023-01-04T23:50:15.236Z,100692.16
2023-01-04T23:53:20.415Z,100684.63
2023-01-04T23:56:25.528Z,100690.50
2023-01-04T23:59:30.660Z,100693.88
